sensor_id;sensor_type;location;lat;lon;timestamp;P1;durP1;ratioP1;P2;durP2;ratioP2
14736;SDS011;7459;53.590;10.062;2023-02-28T00:01:13;6.28;;;1.73;;
14736;SDS011;7459;53.590;10.062;2023-02-28T00:03:40;5.30;;;1.70;;
14736;SDS011;7459;53.590;10.062;2023-02-28T00:06:06;6.30;;;1.37;;
14736;SDS011;7459;53.590;10.062;2023-02-28T00:08:34;5.10;;;1.70;;
14736;SDS011;7459;53.590;10.062;2023-02-28T00:11:08;4.93;;;1.65;;
14736;SDS011;7459;53.590;10.062;2023-02-28T00:13:38;5.82;;;1.70;;
14736;SDS011;7459;53.590;10.062;2023-02-28T00:16:08;5.75;;;1.83;;
14736;SDS011;7459;53.590;10.062;2023-02-28T00:18:41;5.70;;;1.25;;
14736;SDS011;7459;53.590;10.062;2023-02-28T00:21:07;4.97;;;1.83;;
14736;SDS011;7459;53.590;10.062;2023-02-28T00:23:33;7.07;;;2.20;;
14736;SDS011;7459;53.590;10.062;2023-02-28T00:25:59;5.40;;;1.83;;
14736;SDS011;7459;53.590;10.062;2023-02-28T00:28:25;7.07;;;2.07;;
14736;SDS011;7459;53.590;10.062;2023-02-28T00:30:51;5.40;;;1.48;;
14736;SDS011;7459;53.590;10.062;2023-02-28T00:33:16;5.20;;;1.87;;
14736;SDS011;7459;53.590;10.062;2023-02-28T00:35:42;8.70;;;1.75;;
14736;SDS011;7459;53.590;10.062;2023-02-28T00:38:11;5.88;;;1.95;;
14736;SDS011;7459;53.590;10.062;2023-02-28T00:40:38;6.80;;;2.23;;
14736;SDS011;7459;53.590;10.062;2023-02-28T00:43:03;7.78;;;1.55;;
14736;SDS011;7459;53.590;10.062;2023-02-28T00:45:29;7.50;;;1.73;;
14736;SDS011;7459;53.590;10.062;2023-02-28T00:47:55;5.45;;;1.60;;
14736;SDS011;7459;53.590;10.062;2023-02-28T00:50:21;5.75;;;1.75;;
14736;SDS011;7459;53.590;10.062;2023-02-28T00:52:47;6.83;;;1.70;;
14736;SDS011;7459;53.590;10.062;2023-02-28T00:55:13;5.32;;;1.95;;
14736;SDS011;7459;53.590;10.062;2023-02-28T00:57:39;5.05;;;2.38;;
14736;SDS011;7459;53.590;10.062;2023-02-28T01:00:05;5.83;;;1.70;;
14736;SDS011;7459;53.590;10.062;2023-02-28T01:02:32;6.78;;;1.85;;
14736;SDS011;7459;53.590;10.062;2023-02-28T01:04:58;4.78;;;1.45;;
14736;SDS011;7459;53.590;10.062;2023-02-28T01:07:24;3.97;;;1.17;;
14736;SDS011;7459;53.590;10.062;2023-02-28T01:09:50;4.00;;;1.58;;
14736;SDS011;7459;53.590;10.062;2023-02-28T01:12:15;5.80;;;1.53;;
14736;SDS011;7459;53.590;10.062;2023-02-28T01:14:41;7.32;;;1.80;;
14736;SDS011;7459;53.590;10.062;2023-02-28T01:17:07;5.07;;;2.00;;
14736;SDS011;7459;53.590;10.062;2023-02-28T01:19:33;6.30;;;2.25;;
14736;SDS011;7459;53.590;10.062;2023-02-28T01:22:00;5.03;;;1.23;;
14736;SDS011;7459;53.590;10.062;2023-02-28T01:24:30;6.60;;;1.60;;
14736;SDS011;7459;53.590;10.062;2023-02-28T01:26:56;4.68;;;1.60;;
14736;SDS011;7459;53.590;10.062;2023-02-28T01:29:22;4.45;;;1.75;;
14736;SDS011;7459;53.590;10.062;2023-02-28T01:31:48;4.85;;;1.40;;
14736;SDS011;7459;53.590;10.062;2023-02-28T01:34:13;7.37;;;2.03;;
14736;SDS011;7459;53.590;10.062;2023-02-28T01:36:39;7.00;;;1.60;;
14736;SDS011;7459;53.590;10.062;2023-02-28T01:39:05;5.97;;;1.47;;
14736;SDS011;7459;53.590;10.062;2023-02-28T01:41:31;4.53;;;1.45;;
14736;SDS011;7459;53.590;10.062;2023-02-28T01:46:24;6.17;;;1.60;;
14736;SDS011;7459;53.590;10.062;2023-02-28T01:52:00;4.65;;;1.20;;
14736;SDS011;7459;53.590;10.062;2023-02-28T01:54:22;3.65;;;1.20;;
14736;SDS011;7459;53.590;10.062;2023-02-28T01:56:53;4.47;;;1.60;;
14736;SDS011;7459;53.590;10.062;2023-02-28T01:59:29;5.65;;;1.65;;
14736;SDS011;7459;53.590;10.062;2023-02-28T02:02:13;5.82;;;1.63;;
14736;SDS011;7459;53.590;10.062;2023-02-28T02:04:44;4.97;;;1.40;;
14736;SDS011;7459;53.590;10.062;2023-02-28T02:07:18;6.68;;;1.88;;
14736;SDS011;7459;53.590;10.062;2023-02-28T02:09:44;5.93;;;1.45;;
14736;SDS011;7459;53.590;10.062;2023-02-28T02:12:14;6.28;;;1.60;;
14736;SDS011;7459;53.590;10.062;2023-02-28T02:15:16;5.70;;;1.50;;
14736;SDS011;7459;53.590;10.062;2023-02-28T02:17:57;5.20;;;1.20;;
14736;SDS011;7459;53.590;10.062;2023-02-28T02:38:19;6.38;;;2.10;;
14736;SDS011;7459;53.590;10.062;2023-02-28T02:41:18;5.30;;;1.55;;
14736;SDS011;7459;53.590;10.062;2023-02-28T02:43:58;8.23;;;2.40;;
14736;SDS011;7459;53.590;10.062;2023-02-28T02:46:38;5.65;;;2.22;;
14736;SDS011;7459;53.590;10.062;2023-02-28T02:49:09;5.35;;;1.58;;
14736;SDS011;7459;53.590;10.062;2023-02-28T02:51:41;7.43;;;2.25;;
14736;SDS011;7459;53.590;10.062;2023-02-28T02:54:10;7.00;;;1.98;;
14736;SDS011;7459;53.590;10.062;2023-02-28T02:56:44;6.82;;;2.22;;
14736;SDS011;7459;53.590;10.062;2023-02-28T02:59:13;6.07;;;2.10;;
14736;SDS011;7459;53.590;10.062;2023-02-28T03:01:46;4.50;;;1.92;;
14736;SDS011;7459;53.590;10.062;2023-02-28T03:06:53;6.03;;;2.30;;
14736;SDS011;7459;53.590;10.062;2023-02-28T03:09:22;7.28;;;2.17;;
14736;SDS011;7459;53.590;10.062;2023-02-28T03:11:48;5.45;;;2.17;;
14736;SDS011;7459;53.590;10.062;2023-02-28T03:14:22;6.65;;;2.25;;
14736;SDS011;7459;53.590;10.062;2023-02-28T03:17:18;8.38;;;2.13;;
14736;SDS011;7459;53.590;10.062;2023-02-28T03:25:32;4.70;;;1.92;;
14736;SDS011;7459;53.590;10.062;2023-02-28T03:31:12;5.53;;;2.30;;
14736;SDS011;7459;53.590;10.062;2023-02-28T03:33:57;9.98;;;2.50;;
14736;SDS011;7459;53.590;10.062;2023-02-28T03:37:08;7.05;;;2.17;;
14736;SDS011;7459;53.590;10.062;2023-02-28T03:39:45;7.75;;;2.40;;
14736;SDS011;7459;53.590;10.062;2023-02-28T03:42:16;7.10;;;2.42;;
14736;SDS011;7459;53.590;10.062;2023-02-28T03:44:50;5.20;;;2.10;;
14736;SDS011;7459;53.590;10.062;2023-02-28T03:47:25;6.43;;;2.60;;
14736;SDS011;7459;53.590;10.062;2023-02-28T03:50:06;5.72;;;2.55;;
14736;SDS011;7459;53.590;10.062;2023-02-28T03:52:44;7.70;;;2.38;;
14736;SDS011;7459;53.590;10.062;2023-02-28T03:55:16;7.53;;;2.40;;
14736;SDS011;7459;53.590;10.062;2023-02-28T04:00:30;6.90;;;2.40;;
14736;SDS011;7459;53.590;10.062;2023-02-28T04:03:02;5.03;;;2.83;;
14736;SDS011;7459;53.590;10.062;2023-02-28T04:05:28;6.95;;;2.90;;
14736;SDS011;7459;53.590;10.062;2023-02-28T04:08:03;5.90;;;2.55;;
14736;SDS011;7459;53.590;10.062;2023-02-28T04:10:32;6.55;;;2.72;;
14736;SDS011;7459;53.590;10.062;2023-02-28T04:12:58;6.80;;;2.67;;
14736;SDS011;7459;53.590;10.062;2023-02-28T04:15:24;4.93;;;2.45;;
14736;SDS011;7459;53.590;10.062;2023-02-28T04:17:52;5.22;;;2.75;;
14736;SDS011;7459;53.590;10.062;2023-02-28T04:20:18;7.27;;;2.77;;
14736;SDS011;7459;53.590;10.062;2023-02-28T04:22:43;6.22;;;2.33;;
14736;SDS011;7459;53.590;10.062;2023-02-28T04:25:09;7.77;;;3.03;;
14736;SDS011;7459;53.590;10.062;2023-02-28T04:27:35;7.30;;;2.90;;
14736;SDS011;7459;53.590;10.062;2023-02-28T04:30:00;6.50;;;3.27;;
14736;SDS011;7459;53.590;10.062;2023-02-28T04:32:26;7.95;;;3.70;;
14736;SDS011;7459;53.590;10.062;2023-02-28T04:34:52;6.00;;;2.97;;
14736;SDS011;7459;53.590;10.062;2023-02-28T04:37:18;11.38;;;3.00;;
14736;SDS011;7459;53.590;10.062;2023-02-28T04:39:43;7.33;;;3.73;;
14736;SDS011;7459;53.590;10.062;2023-02-28T04:42:09;7.60;;;2.90;;
14736;SDS011;7459;53.590;10.062;2023-02-28T04:44:36;8.63;;;3.22;;
14736;SDS011;7459;53.590;10.062;2023-02-28T04:47:02;7.77;;;3.07;;
14736;SDS011;7459;53.590;10.062;2023-02-28T04:49:27;5.85;;;2.80;;
14736;SDS011;7459;53.590;10.062;2023-02-28T04:51:53;9.55;;;2.80;;
14736;SDS011;7459;53.590;10.062;2023-02-28T04:54:19;9.23;;;3.75;;
14736;SDS011;7459;53.590;10.062;2023-02-28T04:56:45;9.02;;;4.28;;
14736;SDS011;7459;53.590;10.062;2023-02-28T04:59:11;7.47;;;3.47;;
14736;SDS011;7459;53.590;10.062;2023-02-28T05:01:36;8.43;;;3.60;;
14736;SDS011;7459;53.590;10.062;2023-02-28T05:04:02;8.63;;;3.42;;
14736;SDS011;7459;53.590;10.062;2023-02-28T05:06:30;7.88;;;4.18;;
14736;SDS011;7459;53.590;10.062;2023-02-28T05:09:05;8.23;;;3.23;;
14736;SDS011;7459;53.590;10.062;2023-02-28T05:11:32;6.65;;;3.10;;
14736;SDS011;7459;53.590;10.062;2023-02-28T05:14:10;8.68;;;2.80;;
14736;SDS011;7459;53.590;10.062;2023-02-28T05:16:38;6.85;;;3.40;;
14736;SDS011;7459;53.590;10.062;2023-02-28T05:19:04;6.88;;;3.40;;
14736;SDS011;7459;53.590;10.062;2023-02-28T05:21:34;7.17;;;3.07;;
14736;SDS011;7459;53.590;10.062;2023-02-28T05:24:19;7.65;;;3.20;;
14736;SDS011;7459;53.590;10.062;2023-02-28T05:26:48;9.30;;;3.50;;
14736;SDS011;7459;53.590;10.062;2023-02-28T05:29:16;9.23;;;3.53;;
14736;SDS011;7459;53.590;10.062;2023-02-28T05:31:42;9.38;;;3.65;;
14736;SDS011;7459;53.590;10.062;2023-02-28T05:34:07;10.77;;;3.60;;
14736;SDS011;7459;53.590;10.062;2023-02-28T05:36:36;9.45;;;3.42;;
14736;SDS011;7459;53.590;10.062;2023-02-28T05:39:02;7.55;;;3.65;;
14736;SDS011;7459;53.590;10.062;2023-02-28T05:41:28;8.27;;;3.70;;
14736;SDS011;7459;53.590;10.062;2023-02-28T05:43:54;9.85;;;3.67;;
14736;SDS011;7459;53.590;10.062;2023-02-28T05:46:19;10.30;;;3.88;;
14736;SDS011;7459;53.590;10.062;2023-02-28T05:48:46;13.15;;;3.63;;
14736;SDS011;7459;53.590;10.062;2023-02-28T05:51:13;10.55;;;4.05;;
14736;SDS011;7459;53.590;10.062;2023-02-28T05:53:39;9.13;;;3.27;;
14736;SDS011;7459;53.590;10.062;2023-02-28T05:56:05;10.05;;;3.58;;
14736;SDS011;7459;53.590;10.062;2023-02-28T05:58:30;7.68;;;3.60;;
14736;SDS011;7459;53.590;10.062;2023-02-28T06:00:57;9.63;;;4.00;;
14736;SDS011;7459;53.590;10.062;2023-02-28T06:03:24;12.32;;;3.80;;
14736;SDS011;7459;53.590;10.062;2023-02-28T06:05:49;9.13;;;3.70;;
14736;SDS011;7459;53.590;10.062;2023-02-28T06:08:15;8.23;;;3.97;;
14736;SDS011;7459;53.590;10.062;2023-02-28T06:10:41;10.05;;;4.57;;
14736;SDS011;7459;53.590;10.062;2023-02-28T06:13:07;7.17;;;3.57;;
14736;SDS011;7459;53.590;10.062;2023-02-28T06:15:33;9.85;;;4.18;;
14736;SDS011;7459;53.590;10.062;2023-02-28T06:17:59;9.85;;;3.95;;
14736;SDS011;7459;53.590;10.062;2023-02-28T06:20:25;10.60;;;4.00;;
14736;SDS011;7459;53.590;10.062;2023-02-28T06:22:54;8.63;;;3.60;;
14736;SDS011;7459;53.590;10.062;2023-02-28T06:25:24;9.00;;;4.10;;
14736;SDS011;7459;53.590;10.062;2023-02-28T06:27:51;10.55;;;3.72;;
14736;SDS011;7459;53.590;10.062;2023-02-28T06:30:17;11.55;;;4.25;;
14736;SDS011;7459;53.590;10.062;2023-02-28T06:32:42;8.57;;;3.67;;
14736;SDS011;7459;53.590;10.062;2023-02-28T06:35:08;10.93;;;4.32;;
14736;SDS011;7459;53.590;10.062;2023-02-28T06:37:35;11.30;;;4.07;;
14736;SDS011;7459;53.590;10.062;2023-02-28T06:40:00;10.23;;;4.38;;
14736;SDS011;7459;53.590;10.062;2023-02-28T06:42:27;10.82;;;4.22;;
14736;SDS011;7459;53.590;10.062;2023-02-28T06:44:55;10.00;;;4.28;;
14736;SDS011;7459;53.590;10.062;2023-02-28T06:47:22;10.33;;;4.33;;
14736;SDS011;7459;53.590;10.062;2023-02-28T06:49:47;11.88;;;4.20;;
14736;SDS011;7459;53.590;10.062;2023-02-28T06:52:13;8.85;;;4.28;;
14736;SDS011;7459;53.590;10.062;2023-02-28T06:54:39;10.20;;;4.20;;
14736;SDS011;7459;53.590;10.062;2023-02-28T06:57:05;11.77;;;4.68;;
14736;SDS011;7459;53.590;10.062;2023-02-28T06:59:30;7.80;;;4.17;;
14736;SDS011;7459;53.590;10.062;2023-02-28T07:01:56;8.60;;;4.28;;
14736;SDS011;7459;53.590;10.062;2023-02-28T07:04:22;10.03;;;4.60;;
14736;SDS011;7459;53.590;10.062;2023-02-28T07:06:48;13.77;;;4.97;;
14736;SDS011;7459;53.590;10.062;2023-02-28T07:09:13;8.57;;;4.40;;
14736;SDS011;7459;53.590;10.062;2023-02-28T07:11:40;13.32;;;4.47;;
14736;SDS011;7459;53.590;10.062;2023-02-28T07:14:07;9.85;;;4.47;;
14736;SDS011;7459;53.590;10.062;2023-02-28T07:16:33;11.93;;;4.20;;
14736;SDS011;7459;53.590;10.062;2023-02-28T07:18:59;9.80;;;4.70;;
14736;SDS011;7459;53.590;10.062;2023-02-28T07:21:24;15.50;;;5.20;;
14736;SDS011;7459;53.590;10.062;2023-02-28T07:23:50;9.20;;;4.50;;
14736;SDS011;7459;53.590;10.062;2023-02-28T07:26:18;8.80;;;4.27;;
14736;SDS011;7459;53.590;10.062;2023-02-28T07:28:45;9.00;;;4.07;;
14736;SDS011;7459;53.590;10.062;2023-02-28T07:31:12;11.40;;;4.20;;
14736;SDS011;7459;53.590;10.062;2023-02-28T07:33:39;14.95;;;4.60;;
14736;SDS011;7459;53.590;10.062;2023-02-28T07:36:08;12.53;;;5.23;;
14736;SDS011;7459;53.590;10.062;2023-02-28T07:38:40;13.38;;;3.97;;
14736;SDS011;7459;53.590;10.062;2023-02-28T07:41:12;10.23;;;4.45;;
14736;SDS011;7459;53.590;10.062;2023-02-28T07:43:41;17.23;;;4.60;;
14736;SDS011;7459;53.590;10.062;2023-02-28T07:46:10;14.80;;;4.77;;
14736;SDS011;7459;53.590;10.062;2023-02-28T07:48:39;11.05;;;4.10;;
14736;SDS011;7459;53.590;10.062;2023-02-28T07:51:06;11.23;;;5.45;;
14736;SDS011;7459;53.590;10.062;2023-02-28T07:53:32;13.50;;;4.78;;
14736;SDS011;7459;53.590;10.062;2023-02-28T07:55:58;16.70;;;4.87;;
14736;SDS011;7459;53.590;10.062;2023-02-28T07:58:26;10.73;;;4.38;;
14736;SDS011;7459;53.590;10.062;2023-02-28T08:00:53;14.07;;;4.72;;
14736;SDS011;7459;53.590;10.062;2023-02-28T08:03:20;9.07;;;4.65;;
14736;SDS011;7459;53.590;10.062;2023-02-28T08:05:47;10.15;;;4.88;;
14736;SDS011;7459;53.590;10.062;2023-02-28T08:08:14;15.13;;;5.03;;
14736;SDS011;7459;53.590;10.062;2023-02-28T08:10:41;18.63;;;5.40;;
14736;SDS011;7459;53.590;10.062;2023-02-28T08:13:07;9.73;;;5.53;;
14736;SDS011;7459;53.590;10.062;2023-02-28T08:15:33;12.25;;;5.80;;
14736;SDS011;7459;53.590;10.062;2023-02-28T08:17:59;11.23;;;4.70;;
14736;SDS011;7459;53.590;10.062;2023-02-28T08:20:25;13.80;;;5.60;;
14736;SDS011;7459;53.590;10.062;2023-02-28T08:22:51;16.55;;;4.43;;
14736;SDS011;7459;53.590;10.062;2023-02-28T08:25:17;12.03;;;4.90;;
14736;SDS011;7459;53.590;10.062;2023-02-28T08:27:43;10.35;;;5.18;;
14736;SDS011;7459;53.590;10.062;2023-02-28T08:33:40;8.75;;;5.10;;
14736;SDS011;7459;53.590;10.062;2023-02-28T08:36:08;19.33;;;5.50;;
14736;SDS011;7459;53.590;10.062;2023-02-28T08:38:34;10.98;;;4.38;;
14736;SDS011;7459;53.590;10.062;2023-02-28T08:41:02;13.70;;;4.30;;
14736;SDS011;7459;53.590;10.062;2023-02-28T08:43:32;13.33;;;3.77;;
14736;SDS011;7459;53.590;10.062;2023-02-28T08:45:59;8.93;;;4.28;;
14736;SDS011;7459;53.590;10.062;2023-02-28T08:48:25;9.85;;;4.97;;
14736;SDS011;7459;53.590;10.062;2023-02-28T08:50:59;10.32;;;4.13;;
14736;SDS011;7459;53.590;10.062;2023-02-28T08:53:34;11.90;;;4.30;;
14736;SDS011;7459;53.590;10.062;2023-02-28T08:56:05;7.85;;;2.92;;
14736;SDS011;7459;53.590;10.062;2023-02-28T08:58:37;7.45;;;3.15;;
14736;SDS011;7459;53.590;10.062;2023-02-28T09:01:12;9.77;;;3.08;;
14736;SDS011;7459;53.590;10.062;2023-02-28T09:03:41;10.82;;;3.47;;
14736;SDS011;7459;53.590;10.062;2023-02-28T09:06:07;4.40;;;2.00;;
14736;SDS011;7459;53.590;10.062;2023-02-28T09:08:34;6.47;;;2.30;;
14736;SDS011;7459;53.590;10.062;2023-02-28T09:11:00;9.52;;;2.67;;
14736;SDS011;7459;53.590;10.062;2023-02-28T09:13:27;6.95;;;2.10;;
14736;SDS011;7459;53.590;10.062;2023-02-28T09:15:54;11.50;;;2.72;;
14736;SDS011;7459;53.590;10.062;2023-02-28T09:18:22;5.05;;;2.22;;
14736;SDS011;7459;53.590;10.062;2023-02-28T09:20:48;5.80;;;2.45;;
14736;SDS011;7459;53.590;10.062;2023-02-28T09:23:15;6.72;;;2.35;;
14736;SDS011;7459;53.590;10.062;2023-02-28T09:25:45;6.72;;;1.95;;
14736;SDS011;7459;53.590;10.062;2023-02-28T09:28:16;5.25;;;1.88;;
14736;SDS011;7459;53.590;10.062;2023-02-28T09:30:46;4.88;;;1.98;;
14736;SDS011;7459;53.590;10.062;2023-02-28T09:33:15;6.13;;;2.28;;
14736;SDS011;7459;53.590;10.062;2023-02-28T09:35:44;5.25;;;1.83;;
14736;SDS011;7459;53.590;10.062;2023-02-28T09:38:10;6.03;;;2.03;;
14736;SDS011;7459;53.590;10.062;2023-02-28T09:40:40;3.20;;;1.20;;
14736;SDS011;7459;53.590;10.062;2023-02-28T09:43:15;4.70;;;1.17;;
14736;SDS011;7459;53.590;10.062;2023-02-28T09:45:45;4.47;;;1.50;;
14736;SDS011;7459;53.590;10.062;2023-02-28T09:48:35;5.38;;;1.55;;
14736;SDS011;7459;53.590;10.062;2023-02-28T09:51:16;3.35;;;1.13;;
14736;SDS011;7459;53.590;10.062;2023-02-28T09:53:54;5.90;;;1.33;;
14736;SDS011;7459;53.590;10.062;2023-02-28T09:56:21;3.60;;;1.50;;
14736;SDS011;7459;53.590;10.062;2023-02-28T10:01:37;3.85;;;1.17;;
14736;SDS011;7459;53.590;10.062;2023-02-28T10:04:20;3.03;;;0.90;;
14736;SDS011;7459;53.590;10.062;2023-02-28T10:07:22;3.42;;;0.90;;
14736;SDS011;7459;53.590;10.062;2023-02-28T10:13:27;4.32;;;1.33;;
14736;SDS011;7459;53.590;10.062;2023-02-28T10:16:13;4.97;;;1.30;;
14736;SDS011;7459;53.590;10.062;2023-02-28T10:18:49;3.25;;;1.00;;
14736;SDS011;7459;53.590;10.062;2023-02-28T10:21:32;4.05;;;1.65;;
14736;SDS011;7459;53.590;10.062;2023-02-28T10:24:05;3.30;;;1.38;;
14736;SDS011;7459;53.590;10.062;2023-02-28T10:26:41;6.10;;;1.63;;
14736;SDS011;7459;53.590;10.062;2023-02-28T10:29:10;5.60;;;1.48;;
14736;SDS011;7459;53.590;10.062;2023-02-28T10:31:36;4.32;;;1.40;;
14736;SDS011;7459;53.590;10.062;2023-02-28T10:34:03;2.58;;;1.25;;
14736;SDS011;7459;53.590;10.062;2023-02-28T10:36:31;4.65;;;1.55;;
14736;SDS011;7459;53.590;10.062;2023-02-28T10:38:57;4.80;;;1.52;;
14736;SDS011;7459;53.590;10.062;2023-02-28T10:44:12;3.63;;;1.20;;
14736;SDS011;7459;53.590;10.062;2023-02-28T10:46:43;4.07;;;1.25;;
14736;SDS011;7459;53.590;10.062;2023-02-28T10:49:13;7.80;;;1.23;;
14736;SDS011;7459;53.590;10.062;2023-02-28T10:51:46;4.65;;;1.02;;
14736;SDS011;7459;53.590;10.062;2023-02-28T10:54:19;4.05;;;1.20;;
14736;SDS011;7459;53.590;10.062;2023-02-28T10:57:15;4.72;;;1.23;;
14736;SDS011;7459;53.590;10.062;2023-02-28T10:59:44;4.53;;;1.00;;
14736;SDS011;7459;53.590;10.062;2023-02-28T11:02:29;3.05;;;1.15;;
14736;SDS011;7459;53.590;10.062;2023-02-28T11:05:00;5.30;;;1.20;;
14736;SDS011;7459;53.590;10.062;2023-02-28T11:07:26;5.53;;;1.30;;
14736;SDS011;7459;53.590;10.062;2023-02-28T11:09:54;3.72;;;1.10;;
14736;SDS011;7459;53.590;10.062;2023-02-28T11:12:26;2.90;;;0.95;;
14736;SDS011;7459;53.590;10.062;2023-02-28T11:15:04;2.90;;;1.23;;
14736;SDS011;7459;53.590;10.062;2023-02-28T11:17:56;3.20;;;0.80;;
14736;SDS011;7459;53.590;10.062;2023-02-28T11:20:25;3.42;;;1.20;;
14736;SDS011;7459;53.590;10.062;2023-02-28T11:22:55;3.70;;;1.17;;
14736;SDS011;7459;53.590;10.062;2023-02-28T11:25:23;3.97;;;1.30;;
14736;SDS011;7459;53.590;10.062;2023-02-28T11:28:00;4.40;;;1.40;;
14736;SDS011;7459;53.590;10.062;2023-02-28T11:30:35;2.33;;;1.00;;
14736;SDS011;7459;53.590;10.062;2023-02-28T11:36:12;4.50;;;1.25;;
14736;SDS011;7459;53.590;10.062;2023-02-28T11:38:41;3.20;;;1.00;;
14736;SDS011;7459;53.590;10.062;2023-02-28T11:41:27;4.43;;;1.50;;
14736;SDS011;7459;53.590;10.062;2023-02-28T11:50:22;3.70;;;1.27;;
14736;SDS011;7459;53.590;10.062;2023-02-28T12:02:08;3.28;;;1.30;;
14736;SDS011;7459;53.590;10.062;2023-02-28T12:07:54;5.55;;;1.15;;
14736;SDS011;7459;53.590;10.062;2023-02-28T12:10:35;5.13;;;1.20;;
14736;SDS011;7459;53.590;10.062;2023-02-28T12:13:36;4.80;;;1.35;;
14736;SDS011;7459;53.590;10.062;2023-02-28T12:16:31;4.22;;;1.25;;
14736;SDS011;7459;53.590;10.062;2023-02-28T12:21:52;7.35;;;1.25;;
14736;SDS011;7459;53.590;10.062;2023-02-28T12:24:51;5.03;;;1.13;;
14736;SDS011;7459;53.590;10.062;2023-02-28T12:27:56;4.78;;;1.02;;
14736;SDS011;7459;53.590;10.062;2023-02-28T12:30:30;4.75;;;1.30;;
14736;SDS011;7459;53.590;10.062;2023-02-28T12:33:03;4.15;;;1.17;;
14736;SDS011;7459;53.590;10.062;2023-02-28T12:35:37;4.03;;;1.30;;
14736;SDS011;7459;53.590;10.062;2023-02-28T12:38:13;5.83;;;1.50;;
14736;SDS011;7459;53.590;10.062;2023-02-28T12:40:49;2.95;;;1.10;;
14736;SDS011;7459;53.590;10.062;2023-02-28T12:43:31;6.15;;;1.55;;
14736;SDS011;7459;53.590;10.062;2023-02-28T12:46:09;3.58;;;1.38;;
14736;SDS011;7459;53.590;10.062;2023-02-28T12:48:48;4.95;;;1.50;;
14736;SDS011;7459;53.590;10.062;2023-02-28T12:51:20;4.30;;;1.40;;
14736;SDS011;7459;53.590;10.062;2023-02-28T12:53:50;3.22;;;1.48;;
14736;SDS011;7459;53.590;10.062;2023-02-28T12:56:53;5.82;;;1.52;;
14736;SDS011;7459;53.590;10.062;2023-02-28T13:10:37;7.05;;;1.65;;
14736;SDS011;7459;53.590;10.062;2023-02-28T13:13:16;6.68;;;1.55;;
14736;SDS011;7459;53.590;10.062;2023-02-28T13:18:34;6.50;;;1.40;;
14736;SDS011;7459;53.590;10.062;2023-02-28T13:21:02;4.07;;;1.30;;
14736;SDS011;7459;53.590;10.062;2023-02-28T13:23:36;4.35;;;1.77;;
14736;SDS011;7459;53.590;10.062;2023-02-28T13:26:08;6.63;;;2.03;;
14736;SDS011;7459;53.590;10.062;2023-02-28T13:31:29;4.37;;;1.40;;
14736;SDS011;7459;53.590;10.062;2023-02-28T13:36:30;4.95;;;1.52;;
14736;SDS011;7459;53.590;10.062;2023-02-28T13:51:53;5.97;;;2.45;;
14736;SDS011;7459;53.590;10.062;2023-02-28T14:06:49;5.10;;;2.20;;
14736;SDS011;7459;53.590;10.062;2023-02-28T14:09:19;5.40;;;2.08;;
14736;SDS011;7459;53.590;10.062;2023-02-28T14:11:51;8.23;;;2.10;;
14736;SDS011;7459;53.590;10.062;2023-02-28T14:17:01;4.80;;;1.50;;
14736;SDS011;7459;53.590;10.062;2023-02-28T14:19:31;4.93;;;1.50;;
14736;SDS011;7459;53.590;10.062;2023-02-28T14:22:03;5.35;;;2.08;;
14736;SDS011;7459;53.590;10.062;2023-02-28T14:27:43;7.82;;;1.75;;
14736;SDS011;7459;53.590;10.062;2023-02-28T14:38:47;4.95;;;1.50;;
14736;SDS011;7459;53.590;10.062;2023-02-28T14:41:45;6.70;;;1.80;;
14736;SDS011;7459;53.590;10.062;2023-02-28T14:44:22;5.77;;;1.83;;
14736;SDS011;7459;53.590;10.062;2023-02-28T14:47:02;4.65;;;1.83;;
14736;SDS011;7459;53.590;10.062;2023-02-28T14:49:34;5.35;;;2.00;;
14736;SDS011;7459;53.590;10.062;2023-02-28T14:52:06;5.63;;;1.65;;
14736;SDS011;7459;53.590;10.062;2023-02-28T14:54:45;6.93;;;1.80;;
14736;SDS011;7459;53.590;10.062;2023-02-28T14:57:21;6.43;;;1.40;;
14736;SDS011;7459;53.590;10.062;2023-02-28T14:59:57;5.13;;;1.60;;
14736;SDS011;7459;53.590;10.062;2023-02-28T15:02:26;4.03;;;1.83;;
14736;SDS011;7459;53.590;10.062;2023-02-28T15:05:00;5.97;;;1.67;;
14736;SDS011;7459;53.590;10.062;2023-02-28T15:07:35;4.60;;;1.83;;
14736;SDS011;7459;53.590;10.062;2023-02-28T15:18:25;6.43;;;1.83;;
14736;SDS011;7459;53.590;10.062;2023-02-28T15:21:11;4.53;;;1.25;;
14736;SDS011;7459;53.590;10.062;2023-02-28T15:23:42;4.93;;;1.40;;
14736;SDS011;7459;53.590;10.062;2023-02-28T15:26:15;4.50;;;1.60;;
14736;SDS011;7459;53.590;10.062;2023-02-28T15:28:49;4.22;;;1.25;;
14736;SDS011;7459;53.590;10.062;2023-02-28T15:31:28;3.25;;;1.25;;
14736;SDS011;7459;53.590;10.062;2023-02-28T15:33:58;4.03;;;1.95;;
14736;SDS011;7459;53.590;10.062;2023-02-28T15:36:31;4.33;;;1.50;;
14736;SDS011;7459;53.590;10.062;2023-02-28T15:39:02;2.90;;;1.10;;
14736;SDS011;7459;53.590;10.062;2023-02-28T15:41:43;3.65;;;1.17;;
14736;SDS011;7459;53.590;10.062;2023-02-28T15:44:28;4.13;;;1.60;;
14736;SDS011;7459;53.590;10.062;2023-02-28T15:47:03;8.80;;;1.40;;
14736;SDS011;7459;53.590;10.062;2023-02-28T15:49:38;5.30;;;1.37;;
14736;SDS011;7459;53.590;10.062;2023-02-28T15:52:12;5.72;;;1.38;;
14736;SDS011;7459;53.590;10.062;2023-02-28T15:54:41;8.05;;;1.60;;
14736;SDS011;7459;53.590;10.062;2023-02-28T15:57:13;4.30;;;1.35;;
14736;SDS011;7459;53.590;10.062;2023-02-28T15:59:57;5.43;;;1.45;;
14736;SDS011;7459;53.590;10.062;2023-02-28T16:02:33;4.17;;;1.40;;
14736;SDS011;7459;53.590;10.062;2023-02-28T16:07:37;3.80;;;1.42;;
14736;SDS011;7459;53.590;10.062;2023-02-28T16:10:05;3.65;;;1.52;;
14736;SDS011;7459;53.590;10.062;2023-02-28T16:12:35;6.18;;;1.48;;
14736;SDS011;7459;53.590;10.062;2023-02-28T16:15:06;4.80;;;1.73;;
14736;SDS011;7459;53.590;10.062;2023-02-28T16:17:45;4.03;;;1.50;;
14736;SDS011;7459;53.590;10.062;2023-02-28T16:20:16;4.70;;;1.35;;
14736;SDS011;7459;53.590;10.062;2023-02-28T16:22:46;4.60;;;1.67;;
14736;SDS011;7459;53.590;10.062;2023-02-28T16:25:12;4.57;;;1.87;;
14736;SDS011;7459;53.590;10.062;2023-02-28T16:27:40;4.63;;;1.58;;
14736;SDS011;7459;53.590;10.062;2023-02-28T16:30:07;4.40;;;1.23;;
14736;SDS011;7459;53.590;10.062;2023-02-28T16:32:41;4.10;;;1.27;;
14736;SDS011;7459;53.590;10.062;2023-02-28T16:35:11;6.18;;;1.25;;
14736;SDS011;7459;53.590;10.062;2023-02-28T16:37:38;6.57;;;1.55;;
14736;SDS011;7459;53.590;10.062;2023-02-28T16:40:05;5.40;;;1.88;;
14736;SDS011;7459;53.590;10.062;2023-02-28T16:42:34;7.63;;;2.03;;
14736;SDS011;7459;53.590;10.062;2023-02-28T16:44:59;7.13;;;1.60;;
14736;SDS011;7459;53.590;10.062;2023-02-28T16:47:25;4.93;;;1.45;;
14736;SDS011;7459;53.590;10.062;2023-02-28T16:49:51;5.00;;;1.92;;
14736;SDS011;7459;53.590;10.062;2023-02-28T16:52:17;5.72;;;1.90;;
14736;SDS011;7459;53.590;10.062;2023-02-28T16:54:43;7.37;;;1.83;;
14736;SDS011;7459;53.590;10.062;2023-02-28T16:57:17;3.88;;;1.55;;
14736;SDS011;7459;53.590;10.062;2023-02-28T16:59:47;3.13;;;1.48;;
14736;SDS011;7459;53.590;10.062;2023-02-28T17:02:15;3.97;;;1.48;;
14736;SDS011;7459;53.590;10.062;2023-02-28T17:04:46;4.03;;;1.50;;
14736;SDS011;7459;53.590;10.062;2023-02-28T17:07:13;4.85;;;1.25;;
14736;SDS011;7459;53.590;10.062;2023-02-28T17:09:41;8.50;;;1.58;;
14736;SDS011;7459;53.590;10.062;2023-02-28T17:12:08;4.32;;;1.50;;
14736;SDS011;7459;53.590;10.062;2023-02-28T17:14:35;5.70;;;2.03;;
14736;SDS011;7459;53.590;10.062;2023-02-28T17:17:02;4.88;;;1.42;;
14736;SDS011;7459;53.590;10.062;2023-02-28T17:19:30;5.65;;;1.50;;
14736;SDS011;7459;53.590;10.062;2023-02-28T17:21:56;5.73;;;1.57;;
14736;SDS011;7459;53.590;10.062;2023-02-28T17:24:21;8.48;;;1.65;;
14736;SDS011;7459;53.590;10.062;2023-02-28T17:26:47;9.53;;;1.10;;
14736;SDS011;7459;53.590;10.062;2023-02-28T17:29:17;5.47;;;1.60;;
14736;SDS011;7459;53.590;10.062;2023-02-28T17:31:45;7.25;;;1.75;;